sensor_id;sensor_type;location;lat;lon;timestamp;pressure;altitude;pressure_sealevel;temperature;humidity
35307;BME280;21420;52.196;21.416;2022-12-29T00:01:35;100063.81;;;5.20;75.11
35307;BME280;21420;52.196;21.416;2022-12-29T00:04:02;100060.23;;;5.22;75.10
35307;BME280;21420;52.196;21.416;2022-12-29T00:06:29;100060.56;;;5.20;75.04
35307;BME280;21420;52.196;21.416;2022-12-29T00:08:56;100056.49;;;5.20;75.01
35307;BME280;21420;52.196;21.416;2022-12-29T00:11:24;100058.38;;;5.20;74.98
35307;BME280;21420;52.196;21.416;2022-12-29T00:13:51;100062.45;;;5.20;74.98
35307;BME280;21420;52.196;21.416;2022-12-29T00:16:37;100060.86;;;5.19;75.01
35307;BME280;21420;52.196;21.416;2022-12-29T00:19:06;100055.20;;;5.18;75.03
35307;BME280;21420;52.196;21.416;2022-12-29T00:21:32;100048.65;;;5.19;75.00
35307;BME280;21420;52.196;21.416;2022-12-29T00:24:19;100050.23;;;5.20;75.04
35307;BME280;21420;52.196;21.416;2022-12-29T00:27:03;100046.66;;;5.22;74.96
35307;BME280;21420;52.196;21.416;2022-12-29T00:29:50;100049.70;;;5.20;74.96
35307;BME280;21420;52.196;21.416;2022-12-29T00:32:36;100042.09;;;5.20;74.96
35307;BME280;21420;52.196;21.416;2022-12-29T00:35:29;100053.78;;;5.20;74.99
35307;BME280;21420;52.196;21.416;2022-12-29T00:38:01;100039.94;;;5.19;74.97
35307;BME280;21420;52.196;21.416;2022-12-29T00:40:48;100036.99;;;5.18;74.96
35307;BME280;21420;52.196;21.416;2022-12-29T00:43:33;100039.14;;;5.19;74.94
35307;BME280;21420;52.196;21.416;2022-12-29T00:46:17;100042.72;;;5.17;74.90
35307;BME280;21420;52.196;21.416;2022-12-29T00:48:44;100044.94;;;5.15;74.90
35307;BME280;21420;52.196;21.416;2022-12-29T00:51:27;100044.20;;;5.12;74.84
35307;BME280;21420;52.196;21.416;2022-12-29T00:53:53;100049.93;;;5.10;74.83
35307;BME280;21420;52.196;21.416;2022-12-29T00:56:19;100049.44;;;5.08;74.75
35307;BME280;21420;52.196;21.416;2022-12-29T00:58:46;100041.91;;;5.05;74.78
35307;BME280;21420;52.196;21.416;2022-12-29T01:01:12;100045.72;;;5.04;74.80
35307;BME280;21420;52.196;21.416;2022-12-29T01:03:38;100054.42;;;5.04;74.80
35307;BME280;21420;52.196;21.416;2022-12-29T01:06:07;100052.83;;;5.03;74.82
35307;BME280;21420;52.196;21.416;2022-12-29T01:08:36;100044.36;;;5.04;74.85
35307;BME280;21420;52.196;21.416;2022-12-29T01:11:08;100048.70;;;5.05;74.87
35307;BME280;21420;52.196;21.416;2022-12-29T01:13:38;100038.64;;;5.06;74.86
35307;BME280;21420;52.196;21.416;2022-12-29T01:16:07;100036.78;;;5.04;74.81
35307;BME280;21420;52.196;21.416;2022-12-29T01:18:34;100035.98;;;5.03;74.81
35307;BME280;21420;52.196;21.416;2022-12-29T01:21:02;100043.01;;;5.04;74.80
35307;BME280;21420;52.196;21.416;2022-12-29T01:23:29;100035.98;;;5.03;74.80
35307;BME280;21420;52.196;21.416;2022-12-29T01:25:56;100025.43;;;5.01;74.79
35307;BME280;21420;52.196;21.416;2022-12-29T01:28:23;100020.56;;;5.01;74.81
35307;BME280;21420;52.196;21.416;2022-12-29T01:30:50;100016.00;;;4.99;74.79
35307;BME280;21420;52.196;21.416;2022-12-29T01:33:16;100012.42;;;5.01;74.85
35307;BME280;21420;52.196;21.416;2022-12-29T01:35:42;100011.30;;;5.02;74.82
35307;BME280;21420;52.196;21.416;2022-12-29T01:38:10;100011.00;;;5.04;74.79
35307;BME280;21420;52.196;21.416;2022-12-29T01:40:45;100005.58;;;5.04;74.79
35307;BME280;21420;52.196;21.416;2022-12-29T01:43:13;100006.94;;;5.04;74.80
35307;BME280;21420;52.196;21.416;2022-12-29T01:45:47;99998.30;;;5.01;74.76
35307;BME280;21420;52.196;21.416;2022-12-29T01:48:15;99995.08;;;4.99;74.73
35307;BME280;21420;52.196;21.416;2022-12-29T01:50:47;99989.42;;;4.98;74.73
35307;BME280;21420;52.196;21.416;2022-12-29T01:53:25;99996.20;;;4.98;74.73
35307;BME280;21420;52.196;21.416;2022-12-29T01:55:55;99989.42;;;4.98;74.70
35307;BME280;21420;52.196;21.416;2022-12-29T01:58:26;99980.22;;;4.97;74.71
35307;BME280;21420;52.196;21.416;2022-12-29T02:00:55;99984.86;;;4.96;74.72
35307;BME280;21420;52.196;21.416;2022-12-29T02:03:23;99981.34;;;4.96;74.72
35307;BME280;21420;52.196;21.416;2022-12-29T02:06:02;99981.91;;;4.95;74.71
35307;BME280;21420;52.196;21.416;2022-12-29T02:08:29;99973.50;;;4.94;74.68
35307;BME280;21420;52.196;21.416;2022-12-29T02:10:56;99968.88;;;4.95;74.71
35307;BME280;21420;52.196;21.416;2022-12-29T02:13:24;99965.36;;;4.94;74.68
35307;BME280;21420;52.196;21.416;2022-12-29T02:16:01;99962.45;;;4.91;74.63
35307;BME280;21420;52.196;21.416;2022-12-29T02:24:33;99965.23;;;4.88;74.64
35307;BME280;21420;52.196;21.416;2022-12-29T02:32:49;99968.37;;;4.82;74.54
35307;BME280;21420;52.196;21.416;2022-12-29T02:41:29;99963.80;;;4.79;74.56
35307;BME280;21420;52.196;21.416;2022-12-29T02:47:14;99936.07;;;4.71;74.48
35307;BME280;21420;52.196;21.416;2022-12-29T02:53:02;99964.59;;;4.57;74.37
35307;BME280;21420;52.196;21.416;2022-12-29T02:55:33;99973.50;;;4.47;74.35
35307;BME280;21420;52.196;21.416;2022-12-29T03:07:00;99974.50;;;4.26;74.48
35307;BME280;21420;52.196;21.416;2022-12-29T03:19:35;99989.75;;;3.94;74.48
35307;BME280;21420;52.196;21.416;2022-12-29T03:22:04;99983.08;;;3.89;74.54
35307;BME280;21420;52.196;21.416;2022-12-29T03:24:54;99984.20;;;3.88;74.60
35307;BME280;21420;52.196;21.416;2022-12-29T03:27:38;99997.76;;;3.71;74.46
35307;BME280;21420;52.196;21.416;2022-12-29T03:30:06;99998.06;;;3.56;74.39
35307;BME280;21420;52.196;21.416;2022-12-29T03:32:44;99994.96;;;3.46;74.38
35307;BME280;21420;52.196;21.416;2022-12-29T03:35:15;99994.27;;;3.41;74.29
35307;BME280;21420;52.196;21.416;2022-12-29T03:37:49;99992.50;;;3.33;74.38
35307;BME280;21420;52.196;21.416;2022-12-29T03:40:18;99993.91;;;3.28;74.39
35307;BME280;21420;52.196;21.416;2022-12-29T03:42:47;99988.13;;;3.19;74.31
35307;BME280;21420;52.196;21.416;2022-12-29T03:45:14;99986.03;;;3.16;74.39
35307;BME280;21420;52.196;21.416;2022-12-29T03:47:40;99979.88;;;3.10;74.37
35307;BME280;21420;52.196;21.416;2022-12-29T03:50:08;99975.91;;;3.05;74.36
35307;BME280;21420;52.196;21.416;2022-12-29T03:52:36;99970.59;;;3.00;74.36
35307;BME280;21420;52.196;21.416;2022-12-29T03:55:03;99956.84;;;2.96;74.43
35307;BME280;21420;52.196;21.416;2022-12-29T03:57:30;99957.97;;;2.92;74.47
35307;BME280;21420;52.196;21.416;2022-12-29T03:59:58;99958.28;;;2.91;74.50
35307;BME280;21420;52.196;21.416;2022-12-29T04:02:24;99941.27;;;2.88;74.51
35307;BME280;21420;52.196;21.416;2022-12-29T04:04:51;99937.59;;;2.81;74.46
35307;BME280;21420;52.196;21.416;2022-12-29T04:07:17;99925.23;;;2.78;74.51
35307;BME280;21420;52.196;21.416;2022-12-29T04:09:43;99893.75;;;2.68;74.41
35307;BME280;21420;52.196;21.416;2022-12-29T04:12:11;99891.38;;;2.64;74.49
35307;BME280;21420;52.196;21.416;2022-12-29T04:14:39;99891.95;;;2.61;74.50
35307;BME280;21420;52.196;21.416;2022-12-29T04:17:06;99885.28;;;2.56;74.62
35307;BME280;21420;52.196;21.416;2022-12-29T04:19:32;99882.34;;;2.55;74.76
35307;BME280;21420;52.196;21.416;2022-12-29T04:21:59;99878.52;;;2.56;74.82
35307;BME280;21420;52.196;21.416;2022-12-29T04:24:25;99880.16;;;2.54;74.86
35307;BME280;21420;52.196;21.416;2022-12-29T04:26:51;99903.13;;;2.54;74.98
35307;BME280;21420;52.196;21.416;2022-12-29T04:29:22;99914.77;;;2.55;75.05
35307;BME280;21420;52.196;21.416;2022-12-29T04:31:56;99898.55;;;2.55;75.08
35307;BME280;21420;52.196;21.416;2022-12-29T04:34:22;99898.80;;;2.56;75.13
35307;BME280;21420;52.196;21.416;2022-12-29T04:36:48;99899.31;;;2.58;75.12
35307;BME280;21420;52.196;21.416;2022-12-29T04:39:14;99899.86;;;2.57;75.17
35307;BME280;21420;52.196;21.416;2022-12-29T04:41:41;99903.08;;;2.59;75.20
35307;BME280;21420;52.196;21.416;2022-12-29T04:44:09;99899.02;;;2.59;75.17
35307;BME280;21420;52.196;21.416;2022-12-29T04:46:35;99900.38;;;2.59;75.12
35307;BME280;21420;52.196;21.416;2022-12-29T04:49:03;99905.23;;;2.60;75.18
35307;BME280;21420;52.196;21.416;2022-12-29T04:51:36;99924.66;;;2.62;75.24
35307;BME280;21420;52.196;21.416;2022-12-29T04:54:02;99911.39;;;2.63;75.25
35307;BME280;21420;52.196;21.416;2022-12-29T04:56:28;99912.18;;;2.63;75.22
35307;BME280;21420;52.196;21.416;2022-12-29T04:58:55;99887.33;;;2.64;75.29
35307;BME280;21420;52.196;21.416;2022-12-29T05:01:21;99881.41;;;2.62;75.17
35307;BME280;21420;52.196;21.416;2022-12-29T05:03:50;99871.99;;;2.59;75.14
35307;BME280;21420;52.196;21.416;2022-12-29T05:06:17;99870.13;;;2.57;75.21
35307;BME280;21420;52.196;21.416;2022-12-29T05:08:44;99869.58;;;2.58;75.20
35307;BME280;21420;52.196;21.416;2022-12-29T05:11:10;99868.51;;;2.56;75.25
35307;BME280;21420;52.196;21.416;2022-12-29T05:13:36;99872.56;;;2.56;75.19
35307;BME280;21420;52.196;21.416;2022-12-29T05:16:03;99887.19;;;2.55;75.24
35307;BME280;21420;52.196;21.416;2022-12-29T05:18:29;99883.38;;;2.56;75.34
35307;BME280;21420;52.196;21.416;2022-12-29T05:20:57;99876.89;;;2.57;75.39
35307;BME280;21420;52.196;21.416;2022-12-29T05:23:24;99866.08;;;2.57;75.37
35307;BME280;21420;52.196;21.416;2022-12-29T05:25:54;99868.78;;;2.57;75.37
35307;BME280;21420;52.196;21.416;2022-12-29T05:28:28;99863.37;;;2.57;75.39
35307;BME280;21420;52.196;21.416;2022-12-29T05:30:59;99864.17;;;2.58;75.38
35307;BME280;21420;52.196;21.416;2022-12-29T05:33:26;99862.81;;;2.58;75.42
35307;BME280;21420;52.196;21.416;2022-12-29T05:35:52;99865.76;;;2.59;75.43
35307;BME280;21420;52.196;21.416;2022-12-29T05:38:19;99866.36;;;2.56;75.39
35307;BME280;21420;52.196;21.416;2022-12-29T05:40:45;99858.48;;;2.57;75.37
35307;BME280;21420;52.196;21.416;2022-12-29T05:43:17;99852.84;;;2.56;75.38
35307;BME280;21420;52.196;21.416;2022-12-29T05:45:54;99854.75;;;2.55;75.41
35307;BME280;21420;52.196;21.416;2022-12-29T05:48:25;99850.94;;;2.56;75.47
35307;BME280;21420;52.196;21.416;2022-12-29T05:51:10;99846.09;;;2.56;75.46
35307;BME280;21420;52.196;21.416;2022-12-29T05:53:38;99839.56;;;2.57;75.50
35307;BME280;21420;52.196;21.416;2022-12-29T05:56:05;99839.05;;;2.57;75.50
35307;BME280;21420;52.196;21.416;2022-12-29T05:58:32;99839.28;;;2.58;75.57
35307;BME280;21420;52.196;21.416;2022-12-29T06:00:58;99822.22;;;2.60;75.66
35307;BME280;21420;52.196;21.416;2022-12-29T06:03:25;99823.29;;;2.62;75.69
35307;BME280;21420;52.196;21.416;2022-12-29T06:05:53;99818.44;;;2.61;75.71
35307;BME280;21420;52.196;21.416;2022-12-29T06:08:19;99823.86;;;2.59;75.72
35307;BME280;21420;52.196;21.416;2022-12-29T06:10:46;99836.02;;;2.59;75.78
35307;BME280;21420;52.196;21.416;2022-12-29T06:13:13;99827.12;;;2.58;75.85
35307;BME280;21420;52.196;21.416;2022-12-29T06:15:41;99830.33;;;2.60;75.86
35307;BME280;21420;52.196;21.416;2022-12-29T06:18:07;99843.30;;;2.61;75.94
35307;BME280;21420;52.196;21.416;2022-12-29T06:20:33;99830.55;;;2.64;75.98
35307;BME280;21420;52.196;21.416;2022-12-29T06:23:01;99834.01;;;2.67;75.97
35307;BME280;21420;52.196;21.416;2022-12-29T06:25:28;99842.07;;;2.69;76.02
35307;BME280;21420;52.196;21.416;2022-12-29T06:27:56;99829.57;;;2.74;76.12
35307;BME280;21420;52.196;21.416;2022-12-29T06:30:23;99827.09;;;2.77;76.13
35307;BME280;21420;52.196;21.416;2022-12-29T06:32:49;99832.13;;;2.81;76.14
35307;BME280;21420;52.196;21.416;2022-12-29T06:35:15;99835.05;;;2.85;76.20
35307;BME280;21420;52.196;21.416;2022-12-29T06:37:44;99826.84;;;2.90;76.22
35307;BME280;21420;52.196;21.416;2022-12-29T06:40:10;99841.14;;;2.93;76.24
35307;BME280;21420;52.196;21.416;2022-12-29T06:42:39;99837.22;;;2.99;76.27
35307;BME280;21420;52.196;21.416;2022-12-29T06:45:23;99843.14;;;3.01;76.26
35307;BME280;21420;52.196;21.416;2022-12-29T06:47:50;99850.31;;;3.08;76.37
35307;BME280;21420;52.196;21.416;2022-12-29T06:50:16;99837.27;;;3.13;76.38
35307;BME280;21420;52.196;21.416;2022-12-29T06:52:42;99843.42;;;3.16;76.32
35307;BME280;21420;52.196;21.416;2022-12-29T06:55:08;99853.08;;;3.20;76.33
35307;BME280;21420;52.196;21.416;2022-12-29T06:57:34;99850.34;;;3.22;76.37
35307;BME280;21420;52.196;21.416;2022-12-29T07:00:01;99857.02;;;3.27;76.37
35307;BME280;21420;52.196;21.416;2022-12-29T07:02:28;99860.97;;;3.32;76.35
35307;BME280;21420;52.196;21.416;2022-12-29T07:04:54;99860.91;;;3.35;76.34
35307;BME280;21420;52.196;21.416;2022-12-29T07:07:20;99871.39;;;3.39;76.40
35307;BME280;21420;52.196;21.416;2022-12-29T07:09:47;99859.16;;;3.42;76.39
35307;BME280;21420;52.196;21.416;2022-12-29T07:12:13;99853.70;;;3.44;76.37
35307;BME280;21420;52.196;21.416;2022-12-29T07:14:39;99851.25;;;3.45;76.31
35307;BME280;21420;52.196;21.416;2022-12-29T07:17:05;99848.84;;;3.44;76.24
35307;BME280;21420;52.196;21.416;2022-12-29T07:19:32;99851.31;;;3.43;76.24
35307;BME280;21420;52.196;21.416;2022-12-29T07:21:59;99840.48;;;3.43;76.28
35307;BME280;21420;52.196;21.416;2022-12-29T07:24:25;99834.51;;;3.43;76.25
35307;BME280;21420;52.196;21.416;2022-12-29T07:26:52;99833.45;;;3.42;76.23
35307;BME280;21420;52.196;21.416;2022-12-29T07:29:18;99828.80;;;3.45;76.26
35307;BME280;21420;52.196;21.416;2022-12-29T07:31:44;99843.64;;;3.47;76.27
35307;BME280;21420;52.196;21.416;2022-12-29T07:34:10;99851.44;;;3.49;76.26
35307;BME280;21420;52.196;21.416;2022-12-29T07:36:36;99832.46;;;3.51;76.29
35307;BME280;21420;52.196;21.416;2022-12-29T07:39:03;99832.14;;;3.53;76.30
35307;BME280;21420;52.196;21.416;2022-12-29T07:41:29;99828.84;;;3.56;76.25
35307;BME280;21420;52.196;21.416;2022-12-29T07:43:56;99826.64;;;3.58;76.23
35307;BME280;21420;52.196;21.416;2022-12-29T07:46:24;99825.47;;;3.62;76.26
35307;BME280;21420;52.196;21.416;2022-12-29T07:48:50;99821.84;;;3.66;76.28
35307;BME280;21420;52.196;21.416;2022-12-29T07:51:16;99815.79;;;3.72;76.26
35307;BME280;21420;52.196;21.416;2022-12-29T07:53:42;99813.02;;;3.74;76.23
35307;BME280;21420;52.196;21.416;2022-12-29T07:56:08;99807.25;;;3.79;76.23
35307;BME280;21420;52.196;21.416;2022-12-29T07:58:35;99809.90;;;3.81;76.19
35307;BME280;21420;52.196;21.416;2022-12-29T08:01:01;99824.68;;;3.86;76.18
35307;BME280;21420;52.196;21.416;2022-12-29T08:03:27;99821.61;;;3.90;76.19
35307;BME280;21420;52.196;21.416;2022-12-29T08:05:53;99838.61;;;3.93;76.20
35307;BME280;21420;52.196;21.416;2022-12-29T08:08:20;99826.26;;;4.01;76.30
35307;BME280;21420;52.196;21.416;2022-12-29T08:10:49;99819.86;;;4.08;76.28
35307;BME280;21420;52.196;21.416;2022-12-29T08:13:15;99820.23;;;4.15;76.27
35307;BME280;21420;52.196;21.416;2022-12-29T08:15:41;99820.38;;;4.22;76.23
35307;BME280;21420;52.196;21.416;2022-12-29T08:18:07;99812.24;;;4.22;76.14
35307;BME280;21420;52.196;21.416;2022-12-29T08:20:34;99818.16;;;4.24;76.13
35307;BME280;21420;52.196;21.416;2022-12-29T08:23:00;99816.18;;;4.27;76.17
35307;BME280;21420;52.196;21.416;2022-12-29T08:25:26;99816.18;;;4.27;76.12
35307;BME280;21420;52.196;21.416;2022-12-29T08:27:53;99818.83;;;4.29;76.09
35307;BME280;21420;52.196;21.416;2022-12-29T08:30:21;99810.63;;;4.32;76.07
35307;BME280;21420;52.196;21.416;2022-12-29T08:32:47;99798.86;;;4.36;76.08
35307;BME280;21420;52.196;21.416;2022-12-29T08:35:13;99793.01;;;4.43;76.13
35307;BME280;21420;52.196;21.416;2022-12-29T08:37:40;99799.69;;;4.48;76.10
35307;BME280;21420;52.196;21.416;2022-12-29T08:40:07;99801.13;;;4.54;76.11
35307;BME280;21420;52.196;21.416;2022-12-29T08:42:34;99797.13;;;4.63;76.11
35307;BME280;21420;52.196;21.416;2022-12-29T08:45:00;99806.67;;;4.72;76.12
35307;BME280;21420;52.196;21.416;2022-12-29T08:47:27;99819.13;;;4.84;76.22
35307;BME280;21420;52.196;21.416;2022-12-29T08:49:53;99817.20;;;5.16;76.53
35307;BME280;21420;52.196;21.416;2022-12-29T08:52:19;99806.64;;;5.34;76.51
35307;BME280;21420;52.196;21.416;2022-12-29T08:54:46;99810.21;;;5.52;76.47
35307;BME280;21420;52.196;21.416;2022-12-29T08:57:13;99805.84;;;5.71;76.44
35307;BME280;21420;52.196;21.416;2022-12-29T08:59:41;99811.00;;;5.90;76.40
35307;BME280;21420;52.196;21.416;2022-12-29T09:02:12;99819.18;;;6.08;76.33
35307;BME280;21420;52.196;21.416;2022-12-29T09:04:39;99819.11;;;6.28;76.36
35307;BME280;21420;52.196;21.416;2022-12-29T09:07:05;99824.55;;;6.45;76.26
35307;BME280;21420;52.196;21.416;2022-12-29T09:09:32;99814.14;;;6.56;76.08
35307;BME280;21420;52.196;21.416;2022-12-29T09:11:58;99815.71;;;6.65;76.04
35307;BME280;21420;52.196;21.416;2022-12-29T09:14:25;99811.45;;;6.71;75.77
35307;BME280;21420;52.196;21.416;2022-12-29T09:16:51;99813.84;;;6.81;75.82
35307;BME280;21420;52.196;21.416;2022-12-29T09:19:36;99811.48;;;6.94;75.84
35307;BME280;21420;52.196;21.416;2022-12-29T09:22:02;99806.24;;;7.04;75.72
35307;BME280;21420;52.196;21.416;2022-12-29T09:24:29;99799.94;;;6.97;75.39
35307;BME280;21420;52.196;21.416;2022-12-29T09:26:55;99804.05;;;6.88;75.22
35307;BME280;21420;52.196;21.416;2022-12-29T09:29:22;99790.39;;;6.82;75.09
35307;BME280;21420;52.196;21.416;2022-12-29T09:31:49;99788.17;;;6.76;75.03
35307;BME280;21420;52.196;21.416;2022-12-29T09:34:15;99796.48;;;6.71;74.97
35307;BME280;21420;52.196;21.416;2022-12-29T09:36:41;99792.90;;;6.64;74.95
35307;BME280;21420;52.196;21.416;2022-12-29T09:39:08;99791.31;;;6.63;75.00
35307;BME280;21420;52.196;21.416;2022-12-29T09:47:36;99788.43;;;6.59;75.05
35307;BME280;21420;52.196;21.416;2022-12-29T09:53:14;99785.06;;;6.71;75.14
35307;BME280;21420;52.196;21.416;2022-12-29T09:55:50;99784.16;;;6.73;75.07
35307;BME280;21420;52.196;21.416;2022-12-29T09:58:43;99787.13;;;6.74;75.05
35307;BME280;21420;52.196;21.416;2022-12-29T10:04:08;99773.75;;;6.75;74.97
35307;BME280;21420;52.196;21.416;2022-12-29T10:06:54;99770.80;;;6.74;74.95
35307;BME280;21420;52.196;21.416;2022-12-29T10:09:42;99764.56;;;6.74;74.95
35307;BME280;21420;52.196;21.416;2022-12-29T10:21:16;99759.08;;;6.59;74.82
35307;BME280;21420;52.196;21.416;2022-12-29T10:23:55;99768.03;;;6.59;74.83
35307;BME280;21420;52.196;21.416;2022-12-29T10:26:26;99760.75;;;6.57;74.80
35307;BME280;21420;52.196;21.416;2022-12-29T10:29:04;99769.73;;;6.58;74.77
35307;BME280;21420;52.196;21.416;2022-12-29T10:31:50;99755.66;;;6.56;74.72
35307;BME280;21420;52.196;21.416;2022-12-29T10:35:03;99760.30;;;6.55;74.70
35307;BME280;21420;52.196;21.416;2022-12-29T10:36:53;99752.14;;;6.55;74.75
35307;BME280;21420;52.196;21.416;2022-12-29T10:39:26;99736.84;;;6.57;74.71
35307;BME280;21420;52.196;21.416;2022-12-29T10:42:12;99742.27;;;6.57;74.71
35307;BME280;21420;52.196;21.416;2022-12-29T10:44:47;99748.45;;;6.60;74.70
35307;BME280;21420;52.196;21.416;2022-12-29T10:47:16;99741.08;;;6.60;74.71
35307;BME280;21420;52.196;21.416;2022-12-29T10:49:46;99736.34;;;6.63;74.75
35307;BME280;21420;52.196;21.416;2022-12-29T10:52:15;99738.17;;;6.65;74.70
35307;BME280;21420;52.196;21.416;2022-12-29T10:57:26;99737.67;;;6.72;74.65
35307;BME280;21420;52.196;21.416;2022-12-29T10:59:58;99732.05;;;6.77;74.68
35307;BME280;21420;52.196;21.416;2022-12-29T11:02:40;99731.22;;;6.85;74.74
35307;BME280;21420;52.196;21.416;2022-12-29T11:08:12;99717.39;;;6.99;74.66
35307;BME280;21420;52.196;21.416;2022-12-29T11:10:46;99718.55;;;7.04;74.63
35307;BME280;21420;52.196;21.416;2022-12-29T11:13:25;99714.31;;;7.09;74.63
35307;BME280;21420;52.196;21.416;2022-12-29T11:15:49;99713.86;;;7.14;74.60
35307;BME280;21420;52.196;21.416;2022-12-29T11:18:26;99717.78;;;7.19;74.60
35307;BME280;21420;52.196;21.416;2022-12-29T11:20:57;99714.64;;;7.23;74.54
35307;BME280;21420;52.196;21.416;2022-12-29T11:23:32;99717.73;;;7.27;74.50
35307;BME280;21420;52.196;21.416;2022-12-29T11:28:39;99712.41;;;7.31;74.38
35307;BME280;21420;52.196;21.416;2022-12-29T11:31:08;99728.33;;;7.35;74.41
35307;BME280;21420;52.196;21.416;2022-12-29T11:33:36;99733.11;;;7.38;74.41
35307;BME280;21420;52.196;21.416;2022-12-29T11:38:52;99732.00;;;7.39;74.32
35307;BME280;21420;52.196;21.416;2022-12-29T11:41:22;99723.50;;;7.41;74.30
35307;BME280;21420;52.196;21.416;2022-12-29T11:43:51;99715.70;;;7.45;74.28
35307;BME280;21420;52.196;21.416;2022-12-29T11:46:32;99716.39;;;7.48;74.31
35307;BME280;21420;52.196;21.416;2022-12-29T11:48:58;99720.52;;;7.55;74.29
35307;BME280;21420;52.196;21.416;2022-12-29T11:51:46;99725.41;;;7.55;74.19
35307;BME280;21420;52.196;21.416;2022-12-29T11:54:31;99732.11;;;7.58;74.20
35307;BME280;21420;52.196;21.416;2022-12-29T11:57:11;99732.11;;;7.58;74.16
35307;BME280;21420;52.196;21.416;2022-12-29T11:59:53;99721.43;;;7.59;74.13
35307;BME280;21420;52.196;21.416;2022-12-29T12:02:57;99714.40;;;7.58;74.05
35307;BME280;21420;52.196;21.416;2022-12-29T12:11:03;99714.72;;;7.56;74.01
35307;BME280;21420;52.196;21.416;2022-12-29T12:13:37;99713.61;;;7.57;73.99
35307;BME280;21420;52.196;21.416;2022-12-29T12:16:17;99710.88;;;7.57;73.97
35307;BME280;21420;52.196;21.416;2022-12-29T12:18:57;99712.57;;;7.56;73.89
35307;BME280;21420;52.196;21.416;2022-12-29T12:21:39;99708.95;;;7.58;73.89
35307;BME280;21420;52.196;21.416;2022-12-29T12:27:30;99703.55;;;7.64;73.80
35307;BME280;21420;52.196;21.416;2022-12-29T12:30:13;99703.55;;;7.64;73.80
35307;BME280;21420;52.196;21.416;2022-12-29T12:32:53;99701.51;;;7.67;73.77
35307;BME280;21420;52.196;21.416;2022-12-29T12:41:08;99703.34;;;7.69;73.78
35307;BME280;21420;52.196;21.416;2022-12-29T12:43:46;99700.29;;;7.70;73.83
35307;BME280;21420;52.196;21.416;2022-12-29T12:49:49;99690.97;;;7.71;74.08
35307;BME280;21420;52.196;21.416;2022-12-29T12:55:56;99694.27;;;7.71;73.65
35307;BME280;21420;52.196;21.416;2022-12-29T13:01:42;99679.50;;;7.72;73.77
35307;BME280;21420;52.196;21.416;2022-12-29T13:04:41;99679.50;;;7.72;73.77
35307;BME280;21420;52.196;21.416;2022-12-29T13:08:23;99675.98;;;7.71;73.58
35307;BME280;21420;52.196;21.416;2022-12-29T13:10:04;99683.83;;;7.73;73.54
35307;BME280;21420;52.196;21.416;2022-12-29T13:18:46;99672.61;;;7.75;73.50
35307;BME280;21420;52.196;21.416;2022-12-29T13:27:14;99675.77;;;7.77;73.42
35307;BME280;21420;52.196;21.416;2022-12-29T13:30:07;99677.95;;;7.77;73.41
35307;BME280;21420;52.196;21.416;2022-12-29T13:41:21;99681.72;;;7.85;73.41
35307;BME280;21420;52.196;21.416;2022-12-29T13:43:47;99679.25;;;7.86;73.36
35307;BME280;21420;52.196;21.416;2022-12-29T13:46:21;99679.25;;;7.86;73.36
35307;BME280;21420;52.196;21.416;2022-12-29T13:49:04;99692.52;;;7.87;73.39
35307;BME280;21420;52.196;21.416;2022-12-29T13:51:48;99691.73;;;7.87;73.32
35307;BME280;21420;52.196;21.416;2022-12-29T13:54:31;99691.95;;;7.88;73.33
35307;BME280;21420;52.196;21.416;2022-12-29T13:57:55;99686.74;;;7.89;73.32
35307;BME280;21420;52.196;21.416;2022-12-29T14:00:26;99694.34;;;7.89;73.30
35307;BME280;21420;52.196;21.416;2022-12-29T14:06:02;99677.02;;;7.73;73.26
35307;BME280;21420;52.196;21.416;2022-12-29T14:08:18;99704.60;;;7.92;73.28
35307;BME280;21420;52.196;21.416;2022-12-29T14:10:48;99704.25;;;7.94;73.26
35307;BME280;21420;52.196;21.416;2022-12-29T14:13:18;99707.77;;;7.95;73.28
35307;BME280;21420;52.196;21.416;2022-12-29T14:15:57;99707.77;;;7.95;73.28
35307;BME280;21420;52.196;21.416;2022-12-29T14:18:28;99711.20;;;7.98;73.22
35307;BME280;21420;52.196;21.416;2022-12-29T14:21:19;99706.22;;;8.00;73.13
35307;BME280;21420;52.196;21.416;2022-12-29T14:23:46;99702.59;;;8.02;72.79
35307;BME280;21420;52.196;21.416;2022-12-29T14:31:51;99700.08;;;8.03;73.12
35307;BME280;21420;52.196;21.416;2022-12-29T14:34:29;99709.05;;;8.03;73.10
35307;BME280;21420;52.196;21.416;2022-12-29T14:36:59;99696.46;;;8.05;72.93
35307;BME280;21420;52.196;21.416;2022-12-29T14:44:50;99702.38;;;8.07;73.11
35307;BME280;21420;52.196;21.416;2022-12-29T14:47:33;99680.97;;;7.97;73.07
35307;BME280;21420;52.196;21.416;2022-12-29T14:50:13;99699.55;;;8.09;73.05
35307;BME280;21420;52.196;21.416;2022-12-29T14:55:43;99695.67;;;8.10;72.95
35307;BME280;21420;52.196;21.416;2022-12-29T14:58:29;99695.67;;;8.10;72.95
35307;BME280;21420;52.196;21.416;2022-12-29T15:00:59;99694.30;;;8.10;72.86
35307;BME280;21420;52.196;21.416;2022-12-29T15:03:48;99695.13;;;8.11;72.56
35307;BME280;21420;52.196;21.416;2022-12-29T15:06:18;99695.13;;;8.11;72.56
35307;BME280;21420;52.196;21.416;2022-12-29T15:08:54;99690.68;;;8.12;72.97
35307;BME280;21420;52.196;21.416;2022-12-29T15:11:44;99678.95;;;8.00;73.10
35307;BME280;21420;52.196;21.416;2022-12-29T15:14:39;99678.95;;;8.00;73.10
35307;BME280;21420;52.196;21.416;2022-12-29T15:17:22;99693.52;;;8.10;72.83
35307;BME280;21420;52.196;21.416;2022-12-29T15:19:50;99694.88;;;8.10;72.78
35307;BME280;21420;52.196;21.416;2022-12-29T15:22:16;99703.84;;;8.10;72.81
35307;BME280;21420;52.196;21.416;2022-12-29T15:24:43;99698.97;;;8.10;72.83
35307;BME280;21420;52.196;21.416;2022-12-29T15:27:17;99692.16;;;8.10;72.82
35307;BME280;21420;52.196;21.416;2022-12-29T15:29:43;99688.85;;;8.10;72.80
35307;BME280;21420;52.196;21.416;2022-12-29T15:34:47;99693.52;;;8.10;72.77
35307;BME280;21420;52.196;21.416;2022-12-29T15:37:24;99698.86;;;8.12;72.83
35307;BME280;21420;52.196;21.416;2022-12-29T15:39:53;99692.86;;;8.13;72.69
35307;BME280;21420;52.196;21.416;2022-12-29T15:42:40;99696.59;;;8.14;72.81